sensor_id;sensor_type;location;lat;lon;timestamp;temperature;humidity
30206;DHT22;17010;51.306;3.150;2022-10-14T18:34:44;15.80;99.90
30206;DHT22;17010;51.306;3.150;2022-10-14T18:37:10;15.90;99.90
30206;DHT22;17010;51.306;3.150;2022-10-14T18:39:36;15.80;99.90
30206;DHT22;17010;51.306;3.150;2022-10-14T18:42:02;15.80;99.90
30206;DHT22;17010;51.306;3.150;2022-10-14T18:44:28;15.80;99.90
30206;DHT22;17010;51.306;3.150;2022-10-14T18:46:54;15.80;99.90
30206;DHT22;17010;51.306;3.150;2022-10-14T18:49:21;15.80;99.90
30206;DHT22;17010;51.306;3.150;2022-10-14T18:51:47;15.80;99.90
30206;DHT22;17010;51.306;3.150;2022-10-14T18:54:18;15.80;99.90
30206;DHT22;17010;51.306;3.150;2022-10-14T18:56:44;15.80;99.90
30206;DHT22;17010;51.306;3.150;2022-10-14T18:59:14;15.80;99.90
30206;DHT22;17010;51.306;3.150;2022-10-14T19:01:42;15.80;99.90
30206;DHT22;17010;51.306;3.150;2022-10-14T19:04:09;15.80;99.90
30206;DHT22;17010;51.306;3.150;2022-10-14T19:06:37;15.70;99.90
30206;DHT22;17010;51.306;3.150;2022-10-14T19:09:03;15.70;99.90
30206;DHT22;17010;51.306;3.150;2022-10-14T19:11:30;15.70;99.90
30206;DHT22;17010;51.306;3.150;2022-10-14T19:13:57;15.70;99.90
30206;DHT22;17010;51.306;3.150;2022-10-14T19:16:25;15.70;99.90
30206;DHT22;17010;51.306;3.150;2022-10-14T19:18:52;15.60;99.90
30206;DHT22;17010;51.306;3.150;2022-10-14T19:21:22;15.70;99.90
30206;DHT22;17010;51.306;3.150;2022-10-14T19:23:51;15.70;99.90
30206;DHT22;17010;51.306;3.150;2022-10-14T19:26:18;15.60;99.90
30206;DHT22;17010;51.306;3.150;2022-10-14T19:28:44;15.60;99.90
30206;DHT22;17010;51.306;3.150;2022-10-14T19:31:11;15.70;99.90
30206;DHT22;17010;51.306;3.150;2022-10-14T19:33:38;15.70;99.90
30206;DHT22;17010;51.306;3.150;2022-10-14T19:36:04;15.60;99.90
30206;DHT22;17010;51.306;3.150;2022-10-14T19:38:32;15.70;99.90
30206;DHT22;17010;51.306;3.150;2022-10-14T19:40:58;15.70;99.90
30206;DHT22;17010;51.306;3.150;2022-10-14T19:43:25;15.70;99.90
30206;DHT22;17010;51.306;3.150;2022-10-14T19:45:51;15.70;99.90
30206;DHT22;17010;51.306;3.150;2022-10-14T19:48:17;15.70;99.90
30206;DHT22;17010;51.306;3.150;2022-10-14T19:50:43;15.80;99.90
30206;DHT22;17010;51.306;3.150;2022-10-14T19:53:09;15.80;99.90
30206;DHT22;17010;51.306;3.150;2022-10-14T19:55:35;15.80;99.90
30206;DHT22;17010;51.306;3.150;2022-10-14T19:58:02;15.80;99.90
30206;DHT22;17010;51.306;3.150;2022-10-14T20:00:28;15.80;99.90
30206;DHT22;17010;51.306;3.150;2022-10-14T20:02:54;15.80;99.90
30206;DHT22;17010;51.306;3.150;2022-10-14T20:05:20;15.80;99.90
30206;DHT22;17010;51.306;3.150;2022-10-14T20:07:46;15.70;99.90
30206;DHT22;17010;51.306;3.150;2022-10-14T20:10:12;15.70;99.90
30206;DHT22;17010;51.306;3.150;2022-10-14T20:12:38;15.70;99.90
30206;DHT22;17010;51.306;3.150;2022-10-14T20:15:04;15.70;99.90
30206;DHT22;17010;51.306;3.150;2022-10-14T20:17:31;15.70;99.90
30206;DHT22;17010;51.306;3.150;2022-10-14T20:19:57;15.70;99.90
30206;DHT22;17010;51.306;3.150;2022-10-14T20:22:23;15.60;99.90
30206;DHT22;17010;51.306;3.150;2022-10-14T20:24:49;15.60;99.90
30206;DHT22;17010;51.306;3.150;2022-10-14T20:27:15;15.60;99.90
30206;DHT22;17010;51.306;3.150;2022-10-14T20:29:41;15.60;99.90
30206;DHT22;17010;51.306;3.150;2022-10-14T20:32:10;15.60;99.90
30206;DHT22;17010;51.306;3.150;2022-10-14T20:34:36;15.70;99.90
30206;DHT22;17010;51.306;3.150;2022-10-14T20:37:02;15.60;99.90
30206;DHT22;17010;51.306;3.150;2022-10-14T20:39:28;15.60;99.90
30206;DHT22;17010;51.306;3.150;2022-10-14T20:41:55;15.60;99.90
30206;DHT22;17010;51.306;3.150;2022-10-14T20:44:21;15.60;99.90
30206;DHT22;17010;51.306;3.150;2022-10-14T20:46:47;15.50;99.90
30206;DHT22;17010;51.306;3.150;2022-10-14T20:49:13;15.50;99.90
30206;DHT22;17010;51.306;3.150;2022-10-14T20:51:40;15.50;99.90
30206;DHT22;17010;51.306;3.150;2022-10-14T20:54:06;15.40;99.90
30206;DHT22;17010;51.306;3.150;2022-10-14T20:56:33;15.40;99.90
30206;DHT22;17010;51.306;3.150;2022-10-14T20:59:00;15.40;99.90
30206;DHT22;17010;51.306;3.150;2022-10-14T21:01:28;15.40;99.90
30206;DHT22;17010;51.306;3.150;2022-10-14T21:03:54;15.30;99.90
30206;DHT22;17010;51.306;3.150;2022-10-14T21:06:21;15.30;99.90
30206;DHT22;17010;51.306;3.150;2022-10-14T21:08:48;15.20;99.90
30206;DHT22;17010;51.306;3.150;2022-10-14T21:11:15;15.20;99.90
30206;DHT22;17010;51.306;3.150;2022-10-14T21:13:44;15.20;99.90
30206;DHT22;17010;51.306;3.150;2022-10-14T21:16:14;15.20;99.90
30206;DHT22;17010;51.306;3.150;2022-10-14T21:18:47;15.20;99.90
30206;DHT22;17010;51.306;3.150;2022-10-14T21:21:14;15.20;99.90
30206;DHT22;17010;51.306;3.150;2022-10-14T21:23:40;15.20;99.90
30206;DHT22;17010;51.306;3.150;2022-10-14T21:26:06;15.10;99.90
30206;DHT22;17010;51.306;3.150;2022-10-14T21:28:32;15.10;99.90
30206;DHT22;17010;51.306;3.150;2022-10-14T21:30:58;15.10;99.90
30206;DHT22;17010;51.306;3.150;2022-10-14T21:33:24;15.10;99.90
30206;DHT22;17010;51.306;3.150;2022-10-14T21:35:50;15.10;99.90
30206;DHT22;17010;51.306;3.150;2022-10-14T21:38:16;15.00;99.90
30206;DHT22;17010;51.306;3.150;2022-10-14T21:40:42;15.00;99.90
30206;DHT22;17010;51.306;3.150;2022-10-14T21:43:09;15.00;99.90
30206;DHT22;17010;51.306;3.150;2022-10-14T21:45:35;15.00;99.90
30206;DHT22;17010;51.306;3.150;2022-10-14T21:48:01;15.00;99.90
30206;DHT22;17010;51.306;3.150;2022-10-14T21:50:27;14.90;99.90
30206;DHT22;17010;51.306;3.150;2022-10-14T21:52:53;14.90;99.90
30206;DHT22;17010;51.306;3.150;2022-10-14T21:55:19;14.90;99.90
30206;DHT22;17010;51.306;3.150;2022-10-14T21:57:45;14.90;99.90
30206;DHT22;17010;51.306;3.150;2022-10-14T22:00:11;14.90;99.90
30206;DHT22;17010;51.306;3.150;2022-10-14T22:02:38;14.90;99.90
30206;DHT22;17010;51.306;3.150;2022-10-14T22:05:04;14.90;99.90
30206;DHT22;17010;51.306;3.150;2022-10-14T22:07:30;14.90;99.90
30206;DHT22;17010;51.306;3.150;2022-10-14T22:09:56;14.90;99.90
30206;DHT22;17010;51.306;3.150;2022-10-14T22:12:22;14.90;99.90
30206;DHT22;17010;51.306;3.150;2022-10-14T22:14:49;14.90;99.90
30206;DHT22;17010;51.306;3.150;2022-10-14T22:17:15;14.90;99.90
30206;DHT22;17010;51.306;3.150;2022-10-14T22:19:41;14.90;99.90
30206;DHT22;17010;51.306;3.150;2022-10-14T22:22:06;14.90;99.90
30206;DHT22;17010;51.306;3.150;2022-10-14T22:24:33;14.90;99.90
30206;DHT22;17010;51.306;3.150;2022-10-14T22:26:59;15.00;99.90
30206;DHT22;17010;51.306;3.150;2022-10-14T22:29:25;15.00;99.90
30206;DHT22;17010;51.306;3.150;2022-10-14T22:31:51;15.00;99.90
30206;DHT22;17010;51.306;3.150;2022-10-14T22:34:17;15.00;99.90
30206;DHT22;17010;51.306;3.150;2022-10-14T22:36:43;15.00;99.90
30206;DHT22;17010;51.306;3.150;2022-10-14T22:39:11;15.00;99.90
30206;DHT22;17010;51.306;3.150;2022-10-14T22:41:37;15.00;99.90
30206;DHT22;17010;51.306;3.150;2022-10-14T22:44:04;15.00;99.90
30206;DHT22;17010;51.306;3.150;2022-10-14T22:46:31;15.10;99.90
30206;DHT22;17010;51.306;3.150;2022-10-14T22:48:57;15.10;99.90
30206;DHT22;17010;51.306;3.150;2022-10-14T22:51:24;15.10;99.90
30206;DHT22;17010;51.306;3.150;2022-10-14T22:53:50;15.10;99.90
30206;DHT22;17010;51.306;3.150;2022-10-14T22:56:17;15.10;99.90
30206;DHT22;17010;51.306;3.150;2022-10-14T22:58:47;15.10;99.90
30206;DHT22;17010;51.306;3.150;2022-10-14T23:01:14;15.10;99.90
30206;DHT22;17010;51.306;3.150;2022-10-14T23:03:40;15.10;99.90
30206;DHT22;17010;51.306;3.150;2022-10-14T23:06:08;15.10;99.90
30206;DHT22;17010;51.306;3.150;2022-10-14T23:08:34;15.10;99.90
30206;DHT22;17010;51.306;3.150;2022-10-14T23:11:01;15.10;99.90
30206;DHT22;17010;51.306;3.150;2022-10-14T23:13:27;15.10;99.90
30206;DHT22;17010;51.306;3.150;2022-10-14T23:15:54;15.10;99.90
30206;DHT22;17010;51.306;3.150;2022-10-14T23:18:21;15.10;99.90
30206;DHT22;17010;51.306;3.150;2022-10-14T23:20:47;15.10;99.90
30206;DHT22;17010;51.306;3.150;2022-10-14T23:23:13;15.10;99.90
30206;DHT22;17010;51.306;3.150;2022-10-14T23:25:39;15.10;99.90
30206;DHT22;17010;51.306;3.150;2022-10-14T23:28:05;15.10;99.90
30206;DHT22;17010;51.306;3.150;2022-10-14T23:30:31;15.10;99.90
30206;DHT22;17010;51.306;3.150;2022-10-14T23:32:57;15.10;99.90
30206;DHT22;17010;51.306;3.150;2022-10-14T23:35:23;15.10;99.90
30206;DHT22;17010;51.306;3.150;2022-10-14T23:37:50;15.20;99.90
30206;DHT22;17010;51.306;3.150;2022-10-14T23:40:16;15.10;99.90
30206;DHT22;17010;51.306;3.150;2022-10-14T23:42:42;15.10;99.90
30206;DHT22;17010;51.306;3.150;2022-10-14T23:45:08;15.10;99.90
30206;DHT22;17010;51.306;3.150;2022-10-14T23:47:34;15.10;99.90
30206;DHT22;17010;51.306;3.150;2022-10-14T23:50:00;15.10;99.90
30206;DHT22;17010;51.306;3.150;2022-10-14T23:52:27;15.10;99.90
30206;DHT22;17010;51.306;3.150;2022-10-14T23:54:53;15.10;99.90
30206;DHT22;17010;51.306;3.150;2022-10-14T23:57:19;15.10;99.90
30206;DHT22;17010;51.306;3.150;2022-10-14T23:59:45;15.10;99.90
